Time;durP1;ratioP1;P1;durP2;ratioP2;P2;SDS_P1;SDS_P2;PMS_P1;PMS_P2;Temp;Humidity;BMP_temperature;BMP_pressure;BME280_temperature;BME280_humidity;BME280_pressure;Samples;Min_cycle;Max_cycle;Signal;HPM_P1;HPM_P2
2022/04/07 00:01:38;;;;;;;11.80;4.70;;;;;;;10.94;57.46;97497.02;106091;1271;108355;-67
2022/04/07 00:04:11;;;;;;;12.10;4.80;;;;;;;10.91;57.32;97492.88;106080;1271;97873;-67
2022/04/07 00:06:42;;;;;;;13.50;5.10;;;;;;;10.91;57.41;97488.61;106095;1274;97935;-67
2022/04/07 00:09:10;;;;;;;10.10;4.70;;;;;;;10.91;57.40;97487.02;106062;1271;112137;-65
2022/04/07 00:11:40;;;;;;;11.60;4.80;;;;;;;10.90;57.39;97481.09;106068;1274;95275;-66
2022/04/07 00:14:07;;;;;;;11.60;4.60;;;;;;;10.90;57.47;97478.06;106101;1274;108403;-65
2022/04/07 00:16:36;;;;;;;11.90;4.40;;;;;;;10.89;57.49;97476.37;106066;1273;99000;-65
2022/04/07 00:19:07;;;;;;;11.20;4.80;;;;;;;10.90;57.64;97473.44;106105;1274;95203;-66
2022/04/07 00:21:38;;;;;;;11.40;4.90;;;;;;;10.90;57.58;97474.64;106110;1274;112259;-64
2022/04/07 00:24:09;;;;;;;11.20;4.70;;;;;;;10.91;57.61;97473.33;106193;1274;96579;-65
2022/04/07 00:26:37;;;;;;;13.00;5.10;;;;;;;10.92;57.55;97470.77;106073;1274;108182;-66
2022/04/07 00:29:10;;;;;;;9.40;4.10;;;;;;;10.93;57.76;97467.79;106056;1274;98545;-66
2022/04/07 00:31:42;;;;;;;10.60;4.90;;;;;;;10.96;57.68;97468.61;106102;1274;98443;-65
2022/04/07 00:34:12;;;;;;;9.00;4.20;;;;;;;10.98;57.76;97465.11;106073;1271;112085;-66
2022/04/07 00:36:40;;;;;;;9.70;4.90;;;;;;;10.99;58.03;97459.79;106087;1271;97959;-66
2022/04/07 00:39:10;;;;;;;11.80;5.00;;;;;;;11.01;57.88;97458.01;106096;1271;108322;-66
2022/04/07 00:41:42;;;;;;;12.30;5.00;;;;;;;11.02;57.86;97456.30;106093;1271;97873;-66
2022/04/07 00:44:16;;;;;;;12.30;5.00;;;;;;;11.03;57.86;97452.99;106135;1271;97892;-65
2022/04/07 00:46:44;;;;;;;13.30;5.70;;;;;;;11.03;57.85;97443.79;106094;1271;111488;-66
2022/04/07 00:49:12;;;;;;;11.20;4.70;;;;;;;11.04;57.79;97444.78;106232;1271;97751;-66
2022/04/07 00:51:49;;;;;;;9.80;4.50;;;;;;;11.05;57.85;97443.77;106078;1271;107294;-66
2022/04/07 00:54:20;;;;;;;11.70;5.10;;;;;;;11.06;57.83;97444.21;106089;1271;98023;-67
2022/04/07 00:56:49;;;;;;;12.10;4.80;;;;;;;11.07;57.87;97440.92;106060;1274;97857;-65
2022/04/07 00:59:18;;;;;;;10.70;4.80;;;;;;;11.08;57.82;97440.08;106085;1274;111987;-65
2022/04/07 01:01:52;;;;;;;11.50;4.80;;;;;;;11.10;57.93;97435.98;106081;1274;96356;-66
2022/04/07 01:04:22;;;;;;;10.90;4.80;;;;;;;11.11;57.94;97435.00;106062;1274;107747;-68
2022/04/07 01:06:52;;;;;;;9.70;4.80;;;;;;;11.12;57.93;97429.89;106073;1274;97877;-69
2022/04/07 01:09:25;;;;;;;10.80;4.20;;;;;;;11.13;57.94;97426.98;106195;1274;97963;-67
2022/04/07 01:11:56;;;;;;;9.90;4.50;;;;;;;11.15;57.98;97424.20;106038;1274;111980;-65
2022/04/07 01:14:25;;;;;;;12.20;5.10;;;;;;;11.16;57.93;97425.98;106057;1271;97694;-67
2022/04/07 01:16:53;;;;;;;10.40;4.50;;;;;;;11.18;57.93;97426.50;106071;1271;108479;-66
2022/04/07 01:19:22;;;;;;;8.40;4.40;;;;;;;11.20;58.02;97430.05;106032;1273;97887;-66
2022/04/07 01:21:52;;;;;;;11.90;4.30;;;;;;;11.22;57.84;97425.45;106071;1273;96324;-67
2022/04/07 01:24:32;;;;;;;11.60;4.60;;;;;;;11.23;57.98;97429.72;106105;1274;112281;-67
2022/04/07 01:27:03;;;;;;;9.50;4.40;;;;;;;11.24;57.97;97428.90;106066;1274;97880;-66
2022/04/07 01:29:31;;;;;;;10.80;4.60;;;;;;;11.25;57.88;97423.29;106103;1271;106527;-66
2022/04/07 01:32:11;;;;;;;10.30;4.60;;;;;;;11.25;57.90;97423.83;106087;1271;97872;-66
2022/04/07 01:34:40;;;;;;;9.10;4.70;;;;;;;11.26;57.95;97418.46;106111;1271;97989;-67
2022/04/07 01:37:14;;;;;;;9.80;4.50;;;;;;;11.25;57.85;97416.59;106132;1274;111922;-66
2022/04/07 01:39:44;;;;;;;9.20;4.50;;;;;;;11.24;57.89;97410.96;106097;1271;97884;-67
2022/04/07 01:42:16;;;;;;;10.30;4.60;;;;;;;11.24;57.80;97407.64;106078;1272;108325;-65
2022/04/07 01:44:49;;;;;;;9.00;4.00;;;;;;;11.24;57.91;97404.64;106096;1274;95302;-66
2022/04/07 01:47:24;;;;;;;11.10;4.60;;;;;;;11.25;57.93;97404.55;106087;1274;97832;-66
2022/04/07 01:50:04;;;;;;;10.40;4.60;;;;;;;11.24;57.91;97399.59;106066;1271;111760;-66
2022/04/07 01:52:39;;;;;;;11.30;4.40;;;;;;;11.24;57.95;97396.77;106136;1271;97888;-66
2022/04/07 01:55:08;;;;;;;12.70;4.40;;;;;;;11.24;57.85;97393.20;106091;1274;108149;-66
2022/04/07 01:57:39;;;;;;;11.10;4.50;;;;;;;11.25;57.98;97390.27;106098;1274;95338;-66
2022/04/07 02:00:11;;;;;;;8.70;3.90;;;;;;;11.26;57.88;97389.83;106123;1271;97889;-66
2022/04/07 02:02:44;;;;;;;10.90;4.40;;;;;;;11.28;57.86;97386.48;106087;1272;112070;-66
2022/04/07 02:05:13;;;;;;;13.40;5.30;;;;;;;11.29;57.82;97382.66;106109;1271;97957;-65
2022/04/07 02:07:47;;;;;;;8.30;4.50;;;;;;;11.29;57.88;97382.95;106175;1274;108363;-66
2022/04/07 02:10:16;;;;;;;11.50;4.80;;;;;;;11.29;57.78;97377.96;106072;1271;98002;-60
2022/04/07 02:12:46;;;;;;;9.30;4.50;;;;;;;11.29;57.86;97372.70;106086;1274;97970;-62
2022/04/07 02:15:17;;;;;;;11.80;4.60;;;;;;;11.27;57.81;97367.70;106021;1274;112064;-62
2022/04/07 02:17:45;;;;;;;7.60;4.00;;;;;;;11.26;57.93;97366.83;106134;1271;97816;-64
2022/04/07 02:20:14;;;;;;;10.20;4.20;;;;;;;11.24;57.82;97364.15;106105;1273;108249;-63
2022/04/07 02:22:42;;;;;;;8.80;4.40;;;;;;;11.24;57.92;97363.79;106078;1273;97895;-65
2022/04/07 02:25:10;;;;;;;12.30;5.20;;;;;;;11.23;57.77;97352.91;106114;1271;97868;-63
2022/04/07 02:27:44;;;;;;;10.80;4.30;;;;;;;11.22;57.91;97353.17;106218;1271;112070;-67
2022/04/07 02:30:16;;;;;;;9.40;3.70;;;;;;;11.21;57.88;97351.38;106165;1274;97934;-64
2022/04/07 02:32:45;;;;;;;12.30;4.20;;;;;;;11.21;57.74;97346.39;106163;1271;108432;-64
2022/04/07 02:35:16;;;;;;;11.50;4.30;;;;;;;11.22;57.88;97342.89;106151;1271;99032;-66
2022/04/07 02:37:47;;;;;;;9.80;4.10;;;;;;;11.23;57.90;97341.34;106122;1274;95281;-66
2022/04/07 02:40:15;;;;;;;9.10;4.00;;;;;;;11.24;57.85;97341.27;106120;1274;112430;-64
2022/04/07 02:42:47;;;;;;;11.60;4.40;;;;;;;11.26;57.84;97342.61;106203;1271;97836;-64
2022/04/07 02:45:15;;;;;;;11.00;4.50;;;;;;;11.27;57.72;97339.15;106163;1274;108313;-68
2022/04/07 02:47:43;;;;;;;7.50;4.00;;;;;;;11.30;57.83;97338.84;106155;1274;95364;-64
2022/04/07 02:50:16;;;;;;;8.00;3.90;;;;;;;11.34;57.86;97340.63;106183;1270;97857;-66
2022/04/07 02:52:44;;;;;;;9.20;4.80;;;;;;;11.38;57.78;97343.58;106105;1271;112477;-65
2022/04/07 02:55:14;;;;;;;8.20;4.10;;;;;;;11.41;57.73;97342.85;106145;1271;97972;-67
2022/04/07 02:57:43;;;;;;;9.70;4.30;;;;;;;11.44;57.73;97345.79;106082;1274;108290;-67
2022/04/07 03:00:15;;;;;;;7.30;4.30;;;;;;;11.47;57.63;97343.18;106063;1271;98050;-67
2022/04/07 03:02:43;;;;;;;7.40;3.80;;;;;;;11.50;57.55;97349.58;106138;1274;97959;-66
2022/04/07 03:05:15;;;;;;;10.30;3.90;;;;;;;11.53;57.61;97346.97;106049;1274;112060;-65
2022/04/07 03:07:46;;;;;;;10.20;4.40;;;;;;;11.56;57.67;97349.84;106112;1271;97929;-67
2022/04/07 03:10:15;;;;;;;8.80;4.20;;;;;;;11.59;57.62;97345.47;106085;1271;108588;-66
2022/04/07 03:12:43;;;;;;;8.30;4.30;;;;;;;11.61;57.62;97342.01;106061;1274;97981;-67
2022/04/07 03:15:13;;;;;;;8.50;4.10;;;;;;;11.64;57.54;97342.35;106067;1274;97873;-66
2022/04/07 03:17:41;;;;;;;7.30;3.70;;;;;;;11.66;57.53;97343.71;106048;1274;111588;-67
2022/04/07 03:20:12;;;;;;;8.50;4.10;;;;;;;11.68;57.57;97338.00;106093;1271;97864;-67
2022/04/07 03:22:40;;;;;;;9.40;3.70;;;;;;;11.70;57.46;97342.73;106057;1271;106473;-66
2022/04/07 03:25:08;;;;;;;9.50;4.10;;;;;;;11.70;57.54;97345.23;106083;1271;97748;-67
2022/04/07 03:27:37;;;;;;;10.00;4.00;;;;;;;11.71;57.49;97345.13;106078;1271;95200;-66
2022/04/07 03:30:08;;;;;;;8.20;4.00;;;;;;;11.70;57.58;97338.64;106035;1271;112489;-65
2022/04/07 03:32:36;;;;;;;10.60;4.50;;;;;;;11.69;57.51;97341.63;106076;1271;97837;-66
2022/04/07 03:35:06;;;;;;;8.00;4.20;;;;;;;11.69;57.58;97333.96;106102;1271;108314;-66
2022/04/07 03:37:34;;;;;;;10.00;4.00;;;;;;;11.68;57.52;97328.24;105531;1271;723741;-65
2022/04/07 03:40:05;;;;;;;12.10;4.40;;;;;;;11.67;57.54;97321.58;106087;1273;97974;-66
2022/04/07 03:42:34;;;;;;;10.70;3.80;;;;;;;11.67;57.53;97317.48;106110;1271;112367;-67
2022/04/07 03:45:06;;;;;;;7.10;3.80;;;;;;;11.66;57.44;97314.80;106076;1271;96382;-67
2022/04/07 03:47:34;;;;;;;8.20;3.70;;;;;;;11.65;57.39;97308.12;106092;1274;108359;-66
2022/04/07 03:50:08;;;;;;;8.90;3.90;;;;;;;11.64;57.33;97309.31;106088;1271;97926;-65
2022/04/07 03:52:36;;;;;;;10.80;4.10;;;;;;;11.62;57.45;97305.23;106036;1271;97949;-69
2022/04/07 03:55:08;;;;;;;8.10;4.00;;;;;;;11.61;57.36;97305.16;105965;1271;111774;-66
2022/04/07 03:57:36;;;;;;;8.80;4.00;;;;;;;11.59;57.27;97304.05;106032;1271;97845;-69
2022/04/07 04:00:08;;;;;;;8.90;4.50;;;;;;;11.58;57.22;97307.45;106018;1274;108886;-66
2022/04/07 04:02:36;;;;;;;9.10;3.80;;;;;;;11.56;57.34;97310.80;106086;1271;96432;-68
2022/04/07 04:05:10;;;;;;;10.60;4.30;;;;;;;11.56;57.17;97307.13;106093;1270;97896;-64
2022/04/07 04:07:38;;;;;;;12.10;4.50;;;;;;;11.54;57.27;97307.96;106032;1271;112019;-66
2022/04/07 04:10:10;;;;;;;9.80;4.10;;;;;;;11.54;57.19;97307.44;106118;1271;97685;-66
2022/04/07 04:12:39;;;;;;;9.60;4.20;;;;;;;11.53;57.05;97307.40;106066;1274;108638;-66
2022/04/07 04:15:10;;;;;;;10.10;4.30;;;;;;;11.52;57.02;97303.48;106021;1274;98074;-67
2022/04/07 04:17:40;;;;;;;11.20;4.60;;;;;;;11.50;57.07;97307.35;106101;1271;97975;-69
2022/04/07 04:20:10;;;;;;;9.40;4.30;;;;;;;11.49;56.95;97314.70;106151;1271;111970;-69
2022/04/07 04:22:38;;;;;;;11.40;4.80;;;;;;;11.49;57.04;97311.90;106226;1271;97959;-71
2022/04/07 04:25:09;;;;;;;11.30;4.50;;;;;;;11.50;57.01;97312.14;106133;1273;107541;-72
2022/04/07 04:27:40;;;;;;;9.20;4.30;;;;;;;11.50;57.02;97314.64;106130;1271;97886;-71
2022/04/07 04:30:13;;;;;;;10.60;4.20;;;;;;;11.51;56.93;97317.73;106103;1271;97872;-70
2022/04/07 04:32:43;;;;;;;9.20;4.20;;;;;;;11.52;57.12;97318.73;106100;1271;111555;-70
2022/04/07 04:35:12;;;;;;;7.60;4.00;;;;;;;11.51;56.90;97320.20;106134;1271;97870;-71
2022/04/07 04:37:40;;;;;;;14.10;4.90;;;;;;;11.50;57.06;97317.30;106171;1270;107817;-70
2022/04/07 04:40:08;;;;;;;12.00;4.80;;;;;;;11.48;56.87;97318.20;106198;1271;96011;-72
2022/04/07 04:42:40;;;;;;;12.20;5.00;;;;;;;11.48;56.88;97316.42;106205;1271;97895;-71
2022/04/07 04:45:08;;;;;;;16.40;5.30;;;;;;;11.47;56.99;97315.98;106176;1271;111079;-70
2022/04/07 04:47:36;;;;;;;17.70;6.60;;;;;;;11.46;56.94;97313.09;106121;1271;97854;-70
2022/04/07 04:50:08;;;;;;;20.50;6.70;;;;;;;11.46;56.95;97314.15;106083;1271;108482;-70
2022/04/07 04:52:36;;;;;;;18.30;6.20;;;;;;;11.47;56.86;97310.53;106049;1271;97991;-71
2022/04/07 04:55:07;;;;;;;14.20;4.90;;;;;;;11.46;56.87;97306.34;106118;1271;97873;-69
2022/04/07 04:57:35;;;;;;;13.90;4.90;;;;;;;11.45;56.81;97304.27;106089;1271;112797;-69
2022/04/07 05:00:07;;;;;;;14.40;4.70;;;;;;;11.46;56.76;97301.73;106027;1273;95394;-72
2022/04/07 05:02:34;;;;;;;11.30;4.70;;;;;;;11.49;56.68;97298.96;106151;1271;108421;-69
2022/04/07 05:05:06;;;;;;;10.80;4.30;;;;;;;11.52;56.82;97301.00;106138;1271;97907;-70
2022/04/07 05:07:34;;;;;;;12.60;4.50;;;;;;;11.53;56.79;97298.31;106083;1273;97975;-69
2022/04/07 05:10:08;;;;;;;13.30;4.90;;;;;;;11.54;56.61;97297.15;106110;1271;112520;-70
2022/04/07 05:12:36;;;;;;;9.90;4.50;;;;;;;11.55;56.70;97293.36;106169;1274;98599;-70
2022/04/07 05:15:08;;;;;;;12.60;4.30;;;;;;;11.56;56.53;97293.76;106117;1274;107340;-69
2022/04/07 05:17:36;;;;;;;12.90;5.10;;;;;;;11.56;56.64;97294.98;106062;1271;98010;-67
2022/04/07 05:20:09;;;;;;;12.90;4.80;;;;;;;11.57;56.69;97290.13;106056;1273;96428;-68
2022/04/07 05:22:37;;;;;;;11.50;5.40;;;;;;;11.59;56.77;97292.08;106098;1274;112034;-69
2022/04/07 05:25:09;;;;;;;11.40;4.70;;;;;;;11.61;56.66;97288.98;106111;1274;97927;-68
2022/04/07 05:27:38;;;;;;;14.10;5.30;;;;;;;11.66;56.70;97288.30;106114;1271;107047;-68
2022/04/07 05:30:13;;;;;;;12.50;4.90;;;;;;;11.73;56.76;97286.44;106119;1270;97870;-70
2022/04/07 05:32:45;;;;;;;13.30;5.20;;;;;;;11.83;56.66;97289.14;106165;1271;97985;-71
2022/04/07 05:35:15;;;;;;;16.50;5.40;;;;;;;11.91;56.85;97286.75;106131;1271;111191;-67
2022/04/07 05:37:43;;;;;;;15.00;5.10;;;;;;;11.99;56.84;97287.91;106127;1274;96331;-70
2022/04/07 05:40:14;;;;;;;13.60;5.40;;;;;;;12.06;56.84;97292.86;106084;1274;107625;-68
2022/04/07 05:42:42;;;;;;;12.20;5.20;;;;;;;12.12;56.81;97294.53;106121;1271;97998;-68
2022/04/07 05:45:11;;;;;;;12.90;4.80;;;;;;;12.19;56.86;97296.24;106116;1271;95269;-69
2022/04/07 05:47:41;;;;;;;12.70;4.50;;;;;;;12.23;56.84;97303.59;106107;1271;111568;-69
2022/04/07 05:50:12;;;;;;;10.20;4.50;;;;;;;12.27;56.82;97301.07;106170;1271;96457;-69
2022/04/07 05:52:42;;;;;;;10.70;4.40;;;;;;;12.32;56.86;97295.72;106102;1271;108374;-70
2022/04/07 05:55:11;;;;;;;11.80;4.40;;;;;;;12.36;56.79;97295.25;106125;1271;96992;-69
2022/04/07 05:57:39;;;;;;;7.80;4.20;;;;;;;12.39;56.53;97294.25;106184;1271;96396;-70
2022/04/07 06:00:16;;;;;;;10.10;4.10;;;;;;;12.41;56.45;97293.02;106170;1272;111778;-70
2022/04/07 06:02:48;;;;;;;11.40;4.40;;;;;;;12.45;56.54;97289.38;106166;1271;95983;-70
2022/04/07 06:05:18;;;;;;;13.70;4.50;;;;;;;12.52;56.51;97289.84;106211;1271;107700;-72
2022/04/07 06:07:49;;;;;;;9.50;4.30;;;;;;;12.58;56.23;97289.17;106092;1273;95811;-70
2022/04/07 06:10:17;;;;;;;13.80;5.30;;;;;;;12.62;56.33;97292.27;106191;1271;97944;-69
2022/04/07 06:12:46;;;;;;;13.90;5.30;;;;;;;12.69;56.33;97293.91;106144;1273;111572;-70
2022/04/07 06:15:14;;;;;;;11.50;4.60;;;;;;;12.74;56.39;97287.75;106144;1271;96384;-72
2022/04/07 06:17:44;;;;;;;10.80;4.60;;;;;;;12.81;56.34;97289.71;106143;1271;107807;-68
2022/04/07 06:20:17;;;;;;;12.90;4.70;;;;;;;12.89;56.30;97281.77;106154;1271;96969;-72
2022/04/07 06:22:45;;;;;;;9.70;4.30;;;;;;;12.96;56.32;97280.27;106225;1271;95203;-71
2022/04/07 06:25:14;;;;;;;10.00;4.40;;;;;;;13.02;55.62;97280.30;106091;1271;111423;-69
2022/04/07 06:27:47;;;;;;;10.30;4.40;;;;;;;13.07;55.78;97274.78;106060;1271;97975;-69
2022/04/07 06:30:18;;;;;;;11.00;4.00;;;;;;;13.13;55.63;97270.23;106130;1271;108933;-69
2022/04/07 06:32:52;;;;;;;13.40;4.60;;;;;;;13.18;55.77;97265.67;106244;1271;97927;-70
2022/04/07 06:35:20;;;;;;;;;;;;;;;13.25;55.77;97264.89;106215;1271;97825;-69
2022/04/07 06:37:53;;;;;;;11.60;4.20;;;;;;;13.29;55.66;97262.69;106113;1271;111045;-69
2022/04/07 06:40:27;;;;;;;11.50;4.30;;;;;;;13.35;55.60;97263.44;106071;1271;96447;-71
2022/04/07 06:42:58;;;;;;;10.20;4.10;;;;;;;13.42;55.58;97267.31;106178;1271;107894;-68
2022/04/07 06:45:31;;;;;;;11.60;4.60;;;;;;;13.48;55.27;97263.41;106043;1271;98008;-69
2022/04/07 06:47:59;;;;;;;11.50;4.40;;;;;;;13.57;55.37;97264.27;106164;1271;97976;-69
2022/04/07 06:50:31;;;;;;;10.90;4.70;;;;;;;13.63;54.64;97263.67;106114;1270;111780;-69
2022/04/07 06:53:02;;;;;;;12.50;4.10;;;;;;;13.70;54.66;97263.07;106082;1274;95180;-70
2022/04/07 06:55:30;;;;;;;9.10;4.30;;;;;;;13.79;54.74;97262.91;105897;1274;108398;-67
2022/04/07 06:58:11;;;;;;;10.40;4.40;;;;;;;13.90;54.74;97254.45;106898;1271;95630;-67
2022/04/07 07:00:47;;;;;;;15.40;5.60;;;;;;;14.03;54.08;97256.75;106167;1271;97955;-67
2022/04/07 07:03:17;;;;;;;12.00;4.20;;;;;;;14.13;54.54;97257.96;106063;1271;112301;-69
2022/04/07 07:05:46;;;;;;;7.30;3.80;;;;;;;14.24;54.39;97250.63;106159;1271;97883;-67
2022/04/07 07:08:18;;;;;;;9.50;4.30;;;;;;;14.35;54.35;97250.17;106090;1273;108344;-67
2022/04/07 07:10:48;;;;;;;9.30;4.10;;;;;;;14.45;54.29;97248.74;106126;1274;95276;-69
2022/04/07 07:13:21;;;;;;;8.30;4.20;;;;;;;14.55;54.21;97244.73;106168;1271;95274;-68
2022/04/07 07:15:57;;;;;;;10.90;4.40;;;;;;;14.65;53.93;97242.14;106218;1271;114235;-68
2022/04/07 07:18:28;;;;;;;8.90;3.90;;;;;;;14.72;53.50;97235.60;106147;1271;97029;-68
2022/04/07 07:20:56;;;;;;;14.10;5.00;;;;;;;14.81;53.42;97230.69;106079;1274;108628;-68
2022/04/07 07:23:24;;;;;;;8.40;4.00;;;;;;;14.87;53.01;97230.45;106142;1271;97873;-68
2022/04/07 07:25:54;;;;;;;11.40;4.30;;;;;;;14.93;52.58;97229.92;106104;1271;95197;-69
2022/04/07 07:28:25;;;;;;;9.10;4.20;;;;;;;15.02;52.82;97233.30;106084;1274;112049;-67
2022/04/07 07:30:54;;;;;;;8.30;4.40;;;;;;;15.45;52.84;97238.15;106125;1274;97893;-69
2022/04/07 07:33:24;;;;;;;10.60;4.60;;;;;;;16.58;52.86;97231.75;106090;1271;109022;-68
2022/04/07 07:35:55;;;;;;;12.00;4.50;;;;;;;17.59;52.45;97226.52;106229;1274;96372;-68
2022/04/07 07:38:23;;;;;;;9.90;4.10;;;;;;;18.29;51.80;97223.73;106122;1271;95367;-69
2022/04/07 07:40:55;;;;;;;13.70;4.40;;;;;;;18.89;52.36;97234.42;106117;1271;111797;-69
2022/04/07 07:43:25;;;;;;;8.80;3.70;;;;;;;19.39;52.35;97232.94;106114;1271;97840;-69
2022/04/07 07:45:53;;;;;;;9.50;4.10;;;;;;;19.85;52.17;97236.91;106120;1271;108362;-70
2022/04/07 07:48:30;;;;;;;11.60;4.40;;;;;;;20.58;52.12;97230.89;106113;1271;98434;-70
2022/04/07 07:51:01;;;;;;;8.00;4.10;;;;;;;21.15;49.58;97231.65;106136;1271;97758;-68
2022/04/07 07:53:29;;;;;;;10.90;4.00;;;;;;;21.22;47.69;97224.00;106181;1271;111217;-68
2022/04/07 07:55:57;;;;;;;9.00;4.00;;;;;;;21.34;49.80;97219.65;106129;1274;97944;-69
2022/04/07 07:58:28;;;;;;;9.60;4.30;;;;;;;22.07;50.03;97216.38;106100;1271;107765;-70
2022/04/07 08:00:59;;;;;;;7.90;4.00;;;;;;;22.83;49.58;97207.15;106071;1271;97931;-71
2022/04/07 08:03:30;;;;;;;7.40;3.90;;;;;;;23.44;48.49;97205.29;106190;1271;97898;-70
2022/04/07 08:06:03;;;;;;;8.30;4.00;;;;;;;24.07;48.77;97206.62;106145;1271;112043;-68
2022/04/07 08:08:33;;;;;;;9.10;4.10;;;;;;;24.56;48.41;97200.85;106105;1271;96311;-68
2022/04/07 08:11:03;;;;;;;7.60;3.80;;;;;;;25.06;48.20;97204.76;106102;1271;108420;-67
2022/04/07 08:13:31;;;;;;;8.30;3.50;;;;;;;25.29;47.07;97207.50;106101;1274;98083;-68
2022/04/07 08:16:05;;;;;;;8.30;3.60;;;;;;;25.45;47.62;97204.83;106150;1271;97920;-69
2022/04/07 08:18:33;;;;;;;8.70;4.10;;;;;;;25.89;46.70;97202.15;106121;1274;112391;-70
2022/04/07 08:21:01;;;;;;;9.00;4.10;;;;;;;26.43;47.37;97194.76;106093;1274;98482;-68
2022/04/07 08:23:32;;;;;;;7.00;3.50;;;;;;;26.81;43.97;97192.16;106125;1274;108026;-67
2022/04/07 08:26:00;;;;;;;9.40;3.70;;;;;;;26.72;44.16;97189.63;106154;1271;95263;-70
2022/04/07 08:28:29;;;;;;;7.60;3.50;;;;;;;26.95;43.72;97191.70;106180;1271;97831;-70
2022/04/07 08:31:00;;;;;;;8.50;3.70;;;;;;;27.15;42.28;97188.33;106124;1271;112094;-70
2022/04/07 08:33:31;;;;;;;7.70;3.70;;;;;;;27.26;41.39;97184.87;106064;1271;98541;-69
2022/04/07 08:36:00;;;;;;;9.10;3.50;;;;;;;27.41;42.16;97182.15;106102;1271;108309;-70
2022/04/07 08:38:29;;;;;;;6.50;3.20;;;;;;;27.74;40.64;97181.77;106043;1271;97867;-70
2022/04/07 08:41:00;;;;;;;5.80;3.30;;;;;;;28.03;40.97;97183.14;106156;1270;97857;-69
2022/04/07 08:43:28;;;;;;;8.00;3.20;;;;;;;28.23;40.90;97179.73;106145;1274;111350;-68
2022/04/07 08:46:05;;;;;;;7.00;3.50;;;;;;;28.52;40.67;97178.85;106119;1273;99548;-68
2022/04/07 08:48:42;;;;;;;6.50;3.70;;;;;;;28.72;39.76;97174.29;106027;1274;107807;-70
2022/04/07 08:51:14;;;;;;;9.90;3.80;;;;;;;28.90;38.36;97170.56;106200;1274;97950;-69
2022/04/07 08:53:43;;;;;;;6.90;3.60;;;;;;;28.87;39.03;97165.15;106131;1274;98072;-70
2022/04/07 08:56:13;;;;;;;6.70;3.70;;;;;;;28.87;37.90;97168.81;106092;1274;111424;-67
2022/04/07 08:58:41;;;;;;;7.20;3.40;;;;;;;28.81;37.53;97167.73;106076;1274;98365;-69
2022/04/07 09:01:09;;;;;;;7.90;3.40;;;;;;;28.81;36.82;97169.10;106053;1274;108329;-68
2022/04/07 09:03:42;;;;;;;7.50;3.60;;;;;;;28.93;37.71;97164.73;106068;1274;98535;-68
2022/04/07 09:06:17;;;;;;;6.80;3.70;;;;;;;29.13;36.07;97163.52;106119;1274;97893;-69
2022/04/07 09:08:45;;;;;;;6.90;3.60;;;;;;;28.98;35.40;97157.40;106149;1274;111535;-69
2022/04/07 09:11:21;;;;;;;6.90;3.90;;;;;;;28.74;35.85;97152.19;106102;1274;98351;-68
2022/04/07 09:13:54;;;;;;;5.80;3.50;;;;;;;28.64;35.38;97155.70;106160;1274;107654;-68
2022/04/07 09:16:23;;;;;;;5.60;3.20;;;;;;;28.11;35.17;97153.09;106087;1274;95287;-68
2022/04/07 09:18:55;;;;;;;5.20;3.50;;;;;;;27.52;35.04;97153.43;106163;1274;97880;-69
2022/04/07 09:21:28;;;;;;;10.10;3.60;;;;;;;26.86;34.51;97149.75;106163;1274;111360;-68
2022/04/07 09:23:57;;;;;;;7.20;3.50;;;;;;;26.20;34.49;97149.93;106213;1274;98322;-69
2022/04/07 09:26:29;;;;;;;7.10;3.40;;;;;;;25.73;33.96;97148.41;106198;1273;109164;-70
2022/04/07 09:28:58;;;;;;;5.60;3.30;;;;;;;25.37;33.83;97143.00;106148;1274;97876;-70
2022/04/07 09:31:26;;;;;;;6.10;3.30;;;;;;;25.28;33.57;97150.23;106141;1274;97947;-69
2022/04/07 09:33:59;;;;;;;8.10;3.60;;;;;;;25.31;33.26;97145.12;106019;1274;111016;-71
2022/04/07 09:36:27;;;;;;;4.30;3.10;;;;;;;25.44;32.72;97134.77;106105;1274;96918;-69
2022/04/07 09:39:01;;;;;;;5.00;3.20;;;;;;;25.58;32.84;97136.48;105985;1274;108662;-70
2022/04/07 09:41:30;;;;;;;7.10;3.90;;;;;;;25.68;32.54;97137.64;106092;1274;98020;-69
2022/04/07 09:44:01;;;;;;;7.00;3.80;;;;;;;25.76;31.73;97133.96;106123;1271;95342;-69
2022/04/07 09:46:38;;;;;;;4.20;3.20;;;;;;;25.69;32.30;97130.73;106112;1268;111159;-69
2022/04/07 09:49:12;;;;;;;7.40;3.80;;;;;;;25.82;32.06;97125.73;106143;1271;95510;-68
2022/04/07 09:51:50;;;;;;;7.20;3.60;;;;;;;25.91;31.93;97115.95;106093;1274;107721;-69
2022/04/07 09:54:18;;;;;;;6.10;3.50;;;;;;;25.87;32.11;97120.13;106194;1271;97987;-68
2022/04/07 09:56:49;;;;;;;8.00;3.70;;;;;;;25.67;31.71;97112.96;106185;1271;97865;-69
2022/04/07 09:59:21;;;;;;;6.90;3.60;;;;;;;25.51;31.59;97109.77;106216;1271;111173;-69
2022/04/07 10:01:55;;;;;;;10.90;3.60;;;;;;;25.44;31.69;97106.10;106191;1271;97963;-69
2022/04/07 10:04:27;;;;;;;7.70;3.40;;;;;;;25.33;31.37;97101.76;106199;1271;107615;-68
2022/04/07 10:07:01;;;;;;;7.60;3.80;;;;;;;25.05;30.88;97099.27;106121;1271;95284;-69
2022/04/07 10:09:33;;;;;;;10.50;3.60;;;;;;;24.76;31.07;97098.80;106224;1271;97881;-69
2022/04/07 10:12:04;;;;;;;6.50;3.60;;;;;;;24.61;31.24;97092.93;106112;1274;112000;-69
2022/04/07 10:14:36;;;;;;;7.20;3.50;;;;;;;24.46;30.98;97089.30;106089;1273;95521;-69
2022/04/07 10:17:08;;;;;;;6.40;3.60;;;;;;;24.30;30.82;97084.41;106110;1274;108479;-68
2022/04/07 10:20:01;;;;;;;8.70;3.80;;;;;;;24.11;30.36;97082.37;106180;1274;97959;-68
2022/04/07 10:22:38;;;;;;;6.80;3.20;;;;;;;23.83;30.90;97071.16;106108;1271;97973;-69
2022/04/07 10:25:11;;;;;;;7.10;3.60;;;;;;;23.69;30.81;97074.78;106123;1271;111204;-69
2022/04/07 10:27:50;;;;;;;7.70;3.40;;;;;;;23.58;30.81;97071.01;106114;1271;95201;-68
2022/04/07 10:30:21;;;;;;;7.80;3.90;;;;;;;23.48;30.57;97069.86;106166;1271;107730;-70
2022/04/07 10:32:56;;;;;;;6.20;3.30;;;;;;;23.37;30.83;97071.09;106053;1271;97886;-70
2022/04/07 10:35:30;;;;;;;9.30;3.90;;;;;;;23.33;30.49;97068.20;106137;1271;96599;-68
2022/04/07 10:38:02;;;;;;;7.30;3.70;;;;;;;23.13;30.65;97054.02;106063;1271;113276;-67
2022/04/07 10:40:52;;;;;;;5.90;3.60;;;;;;;22.98;30.63;97048.14;106082;1273;97975;-69
2022/04/07 10:43:25;;;;;;;8.00;3.40;;;;;;;22.88;30.85;97044.10;106071;1271;107726;-69
2022/04/07 10:46:02;;;;;;;8.80;3.70;;;;;;;22.85;30.91;97044.38;106050;1274;98672;-69
2022/04/07 10:48:44;;;;;;;6.30;3.30;;;;;;;22.96;31.20;97041.33;106121;1271;96981;-68
2022/04/07 10:51:15;;;;;;;8.50;3.40;;;;;;;22.95;31.04;97033.61;106177;1274;112096;-67
2022/04/07 10:53:54;;;;;;;5.90;3.30;;;;;;;22.82;30.71;97028.64;106187;1271;97933;-69
2022/04/07 10:56:35;;;;;;;5.70;2.80;;;;;;;22.73;30.97;97027.23;106182;1271;108288;-68
2022/04/07 10:59:18;;;;;;;7.30;3.40;;;;;;;22.76;31.26;97021.60;106068;1273;96449;-68
2022/04/07 11:01:54;;;;;;;8.40;3.80;;;;;;;22.68;30.78;97024.09;106126;1271;97889;-68
2022/04/07 11:04:21;;;;;;;7.50;3.60;;;;;;;22.48;30.98;97021.40;106181;1271;112069;-69
2022/04/07 11:07:09;;;;;;;10.10;4.10;;;;;;;22.40;30.76;97014.20;106191;1271;97853;-69
2022/04/07 11:09:44;;;;;;;6.60;3.30;;;;;;;22.39;30.83;97006.46;106151;1272;108552;-68
2022/04/07 11:12:25;;;;;;;9.40;4.00;;;;;;;22.39;31.06;97003.42;106109;1271;95262;-69
2022/04/07 11:15:24;;;;;;;8.20;3.80;;;;;;;22.32;30.67;97003.28;106124;1271;97909;-68
2022/04/07 11:18:02;;;;;;;5.70;3.20;;;;;;;22.20;31.02;97004.33;106112;1271;112427;-66
2022/04/07 11:20:30;;;;;;;11.40;3.80;;;;;;;22.18;30.79;96998.86;106126;1271;95295;-68
2022/04/07 11:23:13;;;;;;;8.00;3.50;;;;;;;21.99;30.75;96996.17;106224;1271;108366;-67
2022/04/07 11:25:50;;;;;;;6.80;3.20;;;;;;;21.87;31.00;96989.89;106148;1271;97090;-69
2022/04/07 11:28:30;;;;;;;;;;;;;;;21.89;31.17;96992.65;106182;1270;97920;-68
2022/04/07 11:31:05;;;;;;;11.50;4.40;;;;;;;21.86;30.95;96990.78;106118;1271;111988;-68
2022/04/07 11:33:41;;;;;;;11.40;4.20;;;;;;;21.79;30.73;96991.81;106148;1273;98375;-68
2022/04/07 11:36:15;;;;;;;9.30;3.70;;;;;;;21.72;30.90;96991.07;106093;1271;108358;-68
2022/04/07 11:38:52;;;;;;;5.60;2.90;;;;;;;21.59;30.84;96984.20;106152;1270;97923;-70